Time;durP1;ratioP1;P1;durP2;ratioP2;P2;SDS_P1;SDS_P2;PMS_P1;PMS_P2;Temp;Humidity;BMP_temperature;BMP_pressure;BME280_temperature;BME280_humidity;BME280_pressure;Samples;Min_cycle;Max_cycle;Signal;HPM_P1;HPM_P2
2022/12/05 00:01:25;;;;;;;43.13;20.40;;;;;;;0.91;100.00;101994.72;5095269;28;20042;-73
2022/12/05 00:03:53;;;;;;;41.90;19.23;;;;;;;0.94;100.00;101996.38;5095774;28;20035;-74
2022/12/05 00:06:19;;;;;;;39.70;20.02;;;;;;;0.95;100.00;101995.47;5095228;28;20045;-74
2022/12/05 00:08:44;;;;;;;45.50;20.67;;;;;;;0.97;100.00;101999.78;5095634;28;20028;-73
2022/12/05 00:11:16;;;;;;;41.25;20.17;;;;;;;0.99;100.00;101997.09;5076986;28;20058;-74
2022/12/05 00:13:42;;;;;;;39.30;20.15;;;;;;;1.00;100.00;101989.19;5094899;28;20028;-74
2022/12/05 00:16:10;;;;;;;38.40;19.10;;;;;;;1.02;100.00;101991.75;5095026;28;20039;-73
2022/12/05 00:18:35;;;;;;;43.03;19.70;;;;;;;1.05;100.00;101989.03;5094880;28;20492;-72
2022/12/05 00:21:01;;;;;;;39.50;18.38;;;;;;;1.06;100.00;101985.53;5094019;28;20039;-71
2022/12/05 00:23:26;;;;;;;39.05;19.48;;;;;;;1.07;100.00;101989.84;5095017;28;20032;-73
2022/12/05 00:25:51;;;;;;;44.30;19.65;;;;;;;1.09;100.00;101998.53;5076601;28;20029;-73
2022/12/05 00:28:17;;;;;;;42.85;20.23;;;;;;;1.12;100.00;101997.56;5094438;28;20047;-74
2022/12/05 00:30:42;;;;;;;36.80;18.92;;;;;;;1.11;100.00;101991.47;5094775;28;20056;-73
2022/12/05 00:33:07;;;;;;;40.28;19.42;;;;;;;1.12;100.00;101990.56;5076640;28;20077;-73
2022/12/05 00:35:33;;;;;;;40.53;18.45;;;;;;;1.14;100.00;101995.75;5094670;28;20035;-73
2022/12/05 00:37:58;;;;;;;37.45;17.17;;;;;;;1.16;100.00;101986.06;5059953;28;20365;-73
2022/12/05 00:40:24;;;;;;;33.05;17.98;;;;;;;1.15;100.00;101995.72;5094490;28;20058;-73
2022/12/05 00:42:49;;;;;;;36.78;18.67;;;;;;;1.19;100.00;101991.22;5094788;28;20051;-73
2022/12/05 00:45:14;;;;;;;35.33;18.00;;;;;;;1.20;100.00;102001.63;5094611;28;20052;-73
2022/12/05 00:47:40;;;;;;;36.80;18.23;;;;;;;1.21;100.00;101994.66;5094454;28;20032;-74
2022/12/05 00:50:06;;;;;;;38.35;17.38;;;;;;;1.22;100.00;101994.59;5094802;28;20237;-73
2022/12/05 00:52:31;;;;;;;32.88;17.23;;;;;;;1.25;100.00;101995.41;5094397;28;20032;-74
2022/12/05 00:54:57;;;;;;;36.25;18.60;;;;;;;1.26;100.00;101995.34;5094694;28;20032;-73
2022/12/05 00:57:22;;;;;;;32.40;17.20;;;;;;;1.28;100.00;101997.91;5093829;28;20112;-73
2022/12/05 00:59:49;;;;;;;35.63;16.98;;;;;;;1.30;100.00;102001.34;5094228;28;20147;-73
2022/12/05 01:02:14;;;;;;;39.22;17.83;;;;;;;1.31;100.00;101997.81;5094107;28;20032;-73
2022/12/05 01:04:39;;;;;;;40.20;18.15;;;;;;;1.34;100.00;102000.34;5093762;28;20519;-73
2022/12/05 01:07:05;;;;;;;36.70;18.55;;;;;;;1.33;100.00;101999.47;5094028;28;20036;-73
2022/12/05 01:09:30;;;;;;;34.15;16.75;;;;;;;1.34;100.00;101993.31;5093946;28;20038;-73
2022/12/05 01:11:56;;;;;;;36.33;16.27;;;;;;;1.36;100.00;101996.75;5093909;28;20032;-73
2022/12/05 01:14:24;;;;;;;35.92;17.80;;;;;;;1.36;100.00;101993.28;5094283;28;20432;-75
2022/12/05 01:16:53;;;;;;;36.03;17.70;;;;;;;1.36;100.00;101995.91;5093670;28;20432;-73
2022/12/05 01:19:25;;;;;;;34.72;16.95;;;;;;;1.37;100.00;101993.25;5075916;28;20349;-72
2022/12/05 01:21:51;;;;;;;31.92;16.20;;;;;;;1.39;100.00;101996.66;5093818;28;20118;-73
2022/12/05 01:24:18;;;;;;;33.53;16.52;;;;;;;1.39;100.00;101991.41;5094295;28;20110;-73
2022/12/05 01:26:44;;;;;;;34.70;17.23;;;;;;;1.40;100.00;102001.00;5094010;28;20063;-73
2022/12/05 01:29:12;;;;;;;36.78;17.20;;;;;;;1.40;100.00;101994.88;5093605;28;20074;-73
2022/12/05 01:31:38;;;;;;;33.88;16.83;;;;;;;1.43;100.00;101999.16;5093422;28;20024;-73
2022/12/05 01:34:06;;;;;;;39.63;17.58;;;;;;;1.41;100.00;101996.59;5093589;28;20043;-73
2022/12/05 01:36:32;;;;;;;36.17;17.55;;;;;;;1.42;100.00;101990.47;5093448;28;20443;-73
2022/12/05 01:38:58;;;;;;;34.22;17.38;;;;;;;1.43;100.00;101992.16;5093531;28;20032;-74
2022/12/05 01:41:35;;;;;;;33.40;16.65;;;;;;;1.45;100.00;101992.97;5093431;28;20028;-76
2022/12/05 01:44:07;;;;;;;34.60;16.42;;;;;;;1.46;100.00;101994.66;5092857;28;20048;-72
2022/12/05 01:46:42;;;;;;;35.33;17.55;;;;;;;1.48;100.00;102000.75;5074881;28;20039;-72
2022/12/05 01:49:27;;;;;;;36.22;17.58;;;;;;;1.49;100.00;102005.06;5093733;28;20492;-72
2022/12/05 01:51:57;;;;;;;35.92;17.00;;;;;;;1.51;100.00;102007.66;5093403;28;20440;-73
2022/12/05 01:54:24;;;;;;;37.15;17.42;;;;;;;1.50;100.00;102004.16;5093751;28;20039;-73
2022/12/05 01:56:56;;;;;;;34.20;17.38;;;;;;;1.51;100.00;101999.78;5093396;28;20035;-73
2022/12/05 01:59:23;;;;;;;36.35;17.52;;;;;;;1.51;100.00;102005.03;5093358;28;20036;-73
2022/12/05 02:01:49;;;;;;;39.13;17.85;;;;;;;1.52;100.00;102006.72;5093167;28;20460;-73
2022/12/05 02:04:15;;;;;;;37.88;16.65;;;;;;;1.53;100.00;102008.44;5075162;28;20054;-73
2022/12/05 02:06:41;;;;;;;36.45;17.75;;;;;;;1.54;100.00;102005.78;5075593;28;20211;-73
2022/12/05 02:09:06;;;;;;;39.80;18.30;;;;;;;1.56;100.00;102003.94;5075276;28;20066;-73
2022/12/05 02:11:34;;;;;;;34.67;17.98;;;;;;;1.57;100.00;102005.66;5093066;28;20060;-73
2022/12/05 02:14:24;;;;;;;42.53;18.33;;;;;;;1.57;100.00;102010.06;5074912;28;20153;-72
2022/12/05 02:16:59;;;;;;;38.05;18.08;;;;;;;1.58;100.00;102010.00;5093644;28;20059;-72
2022/12/05 02:19:49;;;;;;;43.67;18.38;;;;;;;1.58;100.00;102006.50;5093119;28;20524;-73
2022/12/05 02:22:23;;;;;;;39.90;17.90;;;;;;;1.60;100.00;102009.97;5093382;28;20024;-73
2022/12/05 02:24:49;;;;;;;41.35;17.55;;;;;;;1.61;100.00;102010.81;5092842;28;20031;-73
2022/12/05 02:27:35;;;;;;;44.08;19.02;;;;;;;1.61;100.00;102008.19;5093205;28;20032;-73
2022/12/05 02:30:07;;;;;;;38.47;17.55;;;;;;;1.60;100.00;102007.34;5093305;28;20031;-72
2022/12/05 02:32:32;;;;;;;;;;;;;;;1.61;100.00;102003.78;5093551;28;20448;-74
2022/12/05 02:35:14;;;;;;;34.45;17.17;;;;;;;1.60;100.00;102002.09;5092835;28;19922;-73
2022/12/05 02:38:14;;;;;;;41.70;17.48;;;;;;;1.62;100.00;102004.66;5092576;28;20024;-73
2022/12/05 02:40:54;;;;;;;38.25;18.48;;;;;;;1.62;100.00;102000.25;5093131;28;20035;-73
2022/12/05 02:43:38;;;;;;;39.83;17.35;;;;;;;1.63;100.00;102003.72;5093903;28;20028;-73
2022/12/05 02:46:09;;;;;;;41.35;18.70;;;;;;;1.63;100.00;102004.59;5097055;28;20048;-73
2022/12/05 02:48:37;;;;;;;38.58;19.13;;;;;;;1.63;100.00;102004.59;5096772;28;20024;-73
2022/12/05 02:51:06;;;;;;;42.90;19.15;;;;;;;1.64;100.00;102001.06;5096710;28;20028;-73
2022/12/05 02:53:34;;;;;;;38.88;17.88;;;;;;;1.65;100.00;102015.91;5096700;28;20024;-73
2022/12/05 02:56:00;;;;;;;43.13;18.65;;;;;;;1.65;100.00;102017.66;5078421;28;20032;-73
2022/12/05 02:58:49;;;;;;;44.03;18.10;;;;;;;1.67;100.00;102021.09;5078299;28;20034;-73
2022/12/05 03:01:17;;;;;;;39.20;17.45;;;;;;;1.66;100.00;102020.25;5096523;28;20027;-73
2022/12/05 03:03:43;;;;;;;35.53;17.25;;;;;;;1.66;100.00;102022.88;5096432;28;20078;-73
2022/12/05 03:06:19;;;;;;;41.22;18.10;;;;;;;1.68;100.00;102026.28;5096155;28;20035;-72
2022/12/05 03:08:54;;;;;;;39.28;17.88;;;;;;;1.67;100.00;102027.22;5096079;28;20387;-73
2022/12/05 03:11:20;;;;;;;36.85;17.90;;;;;;;1.68;100.00;102018.41;5096309;28;20032;-73
2022/12/05 03:13:52;;;;;;;35.78;17.73;;;;;;;1.70;100.00;102020.97;5096215;28;20111;-73
2022/12/05 03:16:26;;;;;;;40.85;18.15;;;;;;;1.67;100.00;102016.72;5077942;28;20077;-73
2022/12/05 03:18:59;;;;;;;41.97;17.30;;;;;;;1.69;100.00;102024.53;5096528;28;20427;-73
2022/12/05 03:21:36;;;;;;;43.55;18.05;;;;;;;1.69;100.00;102025.38;5096425;28;20086;-73
2022/12/05 03:24:08;;;;;;;37.45;17.40;;;;;;;1.70;100.00;102020.97;5096055;28;20035;-73
2022/12/05 03:26:52;;;;;;;40.28;17.58;;;;;;;1.69;100.00;102021.91;5096288;28;20024;-73
2022/12/05 03:29:43;;;;;;;41.15;18.08;;;;;;;1.69;100.00;102020.13;5095927;28;20020;-73
2022/12/05 03:32:26;;;;;;;39.88;17.75;;;;;;;1.70;100.00;102027.09;5096575;28;20085;-73
2022/12/05 03:35:20;;;;;;;39.70;18.13;;;;;;;1.70;100.00;102019.22;5095606;28;20035;-73
2022/12/05 03:37:55;;;;;;;39.78;17.88;;;;;;;1.69;100.00;102025.38;5096013;28;20047;-73
2022/12/05 03:40:38;;;;;;;42.38;17.63;;;;;;;1.70;100.00;102028.84;5096151;28;20032;-73
2022/12/05 03:43:13;;;;;;;38.05;16.75;;;;;;;1.70;100.00;102034.09;5096624;28;20089;-72
2022/12/05 03:45:44;;;;;;;43.40;18.20;;;;;;;1.70;100.00;102036.72;5096067;28;20064;-72
2022/12/05 03:48:21;;;;;;;40.40;18.33;;;;;;;1.69;100.00;102035.88;5095428;28;20437;-73
2022/12/05 03:50:49;;;;;;;39.85;18.42;;;;;;;1.70;100.00;102031.47;5096410;28;20028;-73
2022/12/05 03:53:21;;;;;;;37.63;17.00;;;;;;;1.70;100.00;102034.97;5095292;28;20055;-72
2022/12/05 03:55:56;;;;;;;37.55;16.52;;;;;;;1.71;100.00;102043.69;5094214;28;20106;-73
2022/12/05 03:58:34;;;;;;;43.38;17.67;;;;;;;1.70;100.00;102034.09;5078324;28;20063;-73
2022/12/05 04:01:03;;;;;;;42.80;17.42;;;;;;;1.71;100.00;102034.03;5095487;28;20031;-74
2022/12/05 04:03:41;;;;;;;33.90;17.17;;;;;;;1.72;100.00;102027.06;5095213;28;20028;-73
2022/12/05 04:06:21;;;;;;;44.85;17.73;;;;;;;1.74;100.00;102039.19;5096030;28;20078;-73
2022/12/05 04:08:52;;;;;;;40.33;16.80;;;;;;;1.75;100.00;102035.66;5095461;28;20065;-74
2022/12/05 04:11:19;;;;;;;;;;;;;;;1.78;100.00;102039.97;5095999;28;20369;-73
2022/12/05 04:13:50;;;;;;;39.70;16.52;;;;;;;1.79;100.00;102032.94;5095032;28;19907;-73
2022/12/05 04:19:23;;;;;;;43.88;17.63;;;;;;;1.81;100.00;102039.84;5095587;28;20555;-73
2022/12/05 04:21:52;;;;;;;42.33;17.02;;;;;;;1.82;100.00;102038.94;5095264;28;20050;-73
2022/12/05 04:27:26;;;;;;;37.22;16.50;;;;;;;1.86;100.00;102037.06;5095157;28;20086;-73
2022/12/05 04:30:01;;;;;;;33.10;16.45;;;;;;;1.87;100.00;102044.03;5095105;28;20368;-73
2022/12/05 04:32:35;;;;;;;35.80;16.23;;;;;;;1.88;100.00;102037.84;5094822;28;20042;-73
2022/12/05 04:35:10;;;;;;;37.92;16.90;;;;;;;1.90;100.00;102034.28;5095448;28;20024;-73
2022/12/05 04:37:39;;;;;;;33.88;16.23;;;;;;;1.91;100.00;102040.38;5076782;28;20024;-73
2022/12/05 04:40:37;;;;;;;36.00;16.60;;;;;;;1.92;100.00;102032.44;5076314;28;20073;-73
2022/12/05 04:43:05;;;;;;;34.88;15.93;;;;;;;1.93;100.00;102030.69;5093239;28;20036;-73
2022/12/05 04:45:32;;;;;;;38.88;17.00;;;;;;;1.94;100.00;102033.25;5094635;28;20052;-73
2022/12/05 04:48:03;;;;;;;35.47;16.25;;;;;;;1.97;100.00;102031.44;5094465;28;20044;-73
2022/12/05 04:50:32;;;;;;;32.88;15.80;;;;;;;1.97;100.00;102027.06;5094385;28;20024;-73
2022/12/05 04:52:59;;;;;;;37.60;16.08;;;;;;;1.98;100.00;102026.13;5076676;28;20051;-73
2022/12/05 04:55:26;;;;;;;35.95;16.83;;;;;;;1.99;100.00;102035.72;5094854;28;20024;-73
2022/12/05 04:57:59;;;;;;;39.97;16.58;;;;;;;1.99;100.00;102033.09;5094188;28;20032;-74
2022/12/05 05:00:27;;;;;;;35.33;16.08;;;;;;;2.00;100.00;102033.94;5094733;28;20030;-73
2022/12/05 05:03:12;;;;;;;36.70;15.98;;;;;;;2.02;100.00;102032.13;5093879;28;20043;-74
2022/12/05 05:05:39;;;;;;;36.08;15.25;;;;;;;2.02;100.00;102040.84;5094316;28;20024;-73
2022/12/05 05:08:16;;;;;;;39.03;16.33;;;;;;;2.04;100.00;102036.41;5075941;28;20032;-73
2022/12/05 05:10:51;;;;;;;30.23;15.23;;;;;;;2.06;100.00;102031.09;5094387;28;20032;-73
2022/12/05 05:13:16;;;;;;;36.03;16.05;;;;;;;2.07;100.00;102031.03;5094166;28;20032;-73
2022/12/05 05:15:42;;;;;;;34.22;15.82;;;;;;;2.09;100.00;102033.59;5093678;28;20032;-73
2022/12/05 05:18:08;;;;;;;37.25;16.02;;;;;;;2.10;100.00;102038.81;5093835;28;20059;-73
2022/12/05 05:20:34;;;;;;;34.90;16.08;;;;;;;2.10;100.00;102033.56;5093626;28;20032;-73
2022/12/05 05:22:59;;;;;;;35.25;15.50;;;;;;;2.12;100.00;102041.41;5094479;28;20028;-74
2022/12/05 05:25:25;;;;;;;34.50;15.65;;;;;;;2.13;100.00;102037.00;5093982;28;20024;-74
2022/12/05 05:27:53;;;;;;;33.30;16.30;;;;;;;2.14;100.00;102043.97;5093977;28;20494;-73
2022/12/05 05:30:19;;;;;;;32.75;15.38;;;;;;;2.16;100.00;102044.75;5075939;28;20036;-72
2022/12/05 05:32:45;;;;;;;35.42;16.98;;;;;;;2.17;100.00;102042.09;5093895;28;20101;-74
2022/12/05 05:35:12;;;;;;;34.97;16.23;;;;;;;2.17;100.00;102044.72;5093565;28;20031;-74
2022/12/05 05:37:38;;;;;;;33.80;16.67;;;;;;;2.18;100.00;102041.19;5093295;28;20379;-74
2022/12/05 05:40:06;;;;;;;35.53;16.67;;;;;;;2.21;100.00;102048.06;5093817;28;20369;-74
2022/12/05 05:42:32;;;;;;;42.35;17.38;;;;;;;2.24;100.00;102053.22;5094188;28;20032;-72
2022/12/05 05:44:57;;;;;;;35.22;15.68;;;;;;;2.27;100.00;102050.50;5093409;28;20376;-73
2022/12/05 05:47:22;;;;;;;36.33;16.45;;;;;;;2.27;100.00;102051.34;5093612;28;20165;-74
2022/12/05 05:49:48;;;;;;;39.47;16.50;;;;;;;2.29;100.00;102057.38;5093432;28;20039;-73
2022/12/05 05:52:13;;;;;;;37.75;15.90;;;;;;;2.32;100.00;102055.59;5093315;28;20032;-73
2022/12/05 05:54:38;;;;;;;38.05;17.15;;;;;;;2.30;100.00;102060.88;5093174;28;20024;-73
2022/12/05 05:57:04;;;;;;;32.80;16.30;;;;;;;2.32;100.00;102056.44;5093368;28;20043;-73
2022/12/05 05:59:29;;;;;;;33.13;16.75;;;;;;;2.33;100.00;102059.91;5093751;28;20028;-74
2022/12/05 06:01:54;;;;;;;38.50;16.52;;;;;;;2.34;100.00;102062.47;5093248;28;20063;-73
2022/12/05 06:04:20;;;;;;;33.15;15.90;;;;;;;2.35;100.00;102061.56;5075109;28;20039;-73
2022/12/05 06:06:45;;;;;;;37.58;16.70;;;;;;;2.35;100.00;102058.94;5093117;28;20043;-74
2022/12/05 06:09:10;;;;;;;34.30;15.90;;;;;;;2.36;100.00;102060.66;5092706;28;20043;-74
2022/12/05 06:11:36;;;;;;;46.15;16.60;;;;;;;2.36;100.00;102063.28;5092743;28;20093;-74
2022/12/05 06:14:01;;;;;;;39.22;17.23;;;;;;;2.36;100.00;102063.28;5075075;28;20040;-74
2022/12/05 06:16:28;;;;;;;33.33;17.00;;;;;;;2.37;100.00;102056.25;5093068;28;20070;-73
2022/12/05 06:18:53;;;;;;;37.22;16.25;;;;;;;2.37;100.00;102059.72;5094978;28;20036;-74
2022/12/05 06:21:20;;;;;;;37.97;17.00;;;;;;;2.38;100.00;102060.59;5097726;28;20028;-74
2022/12/05 06:23:45;;;;;;;36.55;16.90;;;;;;;2.40;100.00;102061.41;5097570;28;20103;-73
2022/12/05 06:26:14;;;;;;;38.20;18.20;;;;;;;2.40;100.00;102058.78;5097214;28;20117;-74
2022/12/05 06:28:40;;;;;;;37.13;17.88;;;;;;;2.41;100.00;102063.13;5097138;28;20028;-73
2022/12/05 06:31:15;;;;;;;40.08;17.42;;;;;;;2.41;100.00;102058.72;5078990;28;20039;-73
2022/12/05 06:33:40;;;;;;;35.10;17.25;;;;;;;2.42;100.00;102067.47;5079422;28;20064;-73
2022/12/05 06:36:12;;;;;;;36.40;16.25;;;;;;;2.43;100.00;102069.16;5097048;28;20062;-73
2022/12/05 06:38:39;;;;;;;34.97;16.70;;;;;;;2.43;100.00;102067.41;5097279;28;20024;-73
2022/12/05 06:41:10;;;;;;;35.85;17.58;;;;;;;2.46;100.00;102069.03;5096756;28;20035;-73
2022/12/05 06:43:35;;;;;;;36.20;17.55;;;;;;;2.46;100.00;102069.03;5097331;28;20040;-73
2022/12/05 06:46:09;;;;;;;36.03;17.08;;;;;;;2.47;100.00;102082.13;5078345;28;20135;-73
2022/12/05 06:48:34;;;;;;;36.35;15.90;;;;;;;2.49;100.00;102075.97;5096728;28;20039;-72
2022/12/05 06:51:00;;;;;;;38.80;16.88;;;;;;;2.49;100.00;102079.44;5096921;28;20040;-73
2022/12/05 06:53:26;;;;;;;33.30;16.33;;;;;;;2.50;100.00;102077.69;5097347;28;20040;-74
2022/12/05 06:55:57;;;;;;;30.08;15.90;;;;;;;2.51;100.00;102080.25;5096862;28;20036;-74
2022/12/05 06:58:23;;;;;;;34.53;15.55;;;;;;;2.53;100.00;102080.19;5096817;28;20028;-74
2022/12/05 07:03:32;;;;;;;35.33;15.82;;;;;;;2.56;100.00;102086.19;5096800;28;20499;-73
2022/12/05 07:06:02;;;;;;;29.27;14.77;;;;;;;2.57;100.00;102084.44;5096531;28;20036;-73
2022/12/05 07:08:28;;;;;;;32.47;15.98;;;;;;;2.58;100.00;102088.75;5096147;28;20032;-72
2022/12/05 07:10:53;;;;;;;29.55;15.82;;;;;;;2.58;100.00;102089.63;5096598;28;20028;-73
2022/12/05 07:13:19;;;;;;;30.33;14.73;;;;;;;2.57;100.00;102089.69;5096717;28;20041;-73
2022/12/05 07:15:48;;;;;;;31.45;15.18;;;;;;;2.57;100.00;102093.16;5061388;28;20032;-73
2022/12/05 07:18:15;;;;;;;32.92;15.73;;;;;;;2.59;100.00;102095.75;5095713;28;20476;-72
2022/12/05 07:20:40;;;;;;;34.67;14.75;;;;;;;2.61;100.00;102092.16;5096148;28;20024;-73
2022/12/05 07:23:06;;;;;;;34.00;15.70;;;;;;;2.63;100.00;102097.34;5095675;28;20077;-72
2022/12/05 07:25:31;;;;;;;32.40;15.50;;;;;;;2.62;100.00;102100.88;5095727;28;20039;-73
2022/12/05 07:27:57;;;;;;;28.80;14.32;;;;;;;2.62;100.00;102099.09;5077955;28;20036;-72
2022/12/05 07:30:22;;;;;;;30.90;15.18;;;;;;;2.65;100.00;102106.03;5096117;28;20090;-72
2022/12/05 07:32:47;;;;;;;27.70;14.43;;;;;;;2.67;100.00;102108.59;5096333;28;20036;-72
2022/12/05 07:35:13;;;;;;;28.55;14.77;;;;;;;2.65;100.00;102112.13;5095865;28;20028;-72
2022/12/05 07:37:38;;;;;;;31.85;14.93;;;;;;;2.66;100.00;102115.63;5095743;28;20037;-72
2022/12/05 07:40:04;;;;;;;30.20;14.05;;;;;;;2.68;100.00;102110.31;5095791;28;20024;-72
2022/12/05 07:42:29;;;;;;;27.42;14.25;;;;;;;2.69;100.00;102112.88;5095626;28;20103;-72
2022/12/05 07:44:55;;;;;;;28.10;13.23;;;;;;;2.69;100.00;102107.63;5095592;28;20067;-72
2022/12/05 07:47:20;;;;;;;29.98;13.60;;;;;;;2.72;100.00;102117.19;5095545;28;20392;-71
2022/12/05 07:49:46;;;;;;;25.70;12.68;;;;;;;2.74;100.00;102113.56;5095754;28;20028;-72
2022/12/05 07:52:11;;;;;;;20.38;12.63;;;;;;;2.76;100.00;102117.00;5095455;28;20097;-77
2022/12/05 07:54:36;;;;;;;23.02;12.27;;;;;;;2.77;100.00;102116.06;5095677;28;20449;-75
2022/12/05 07:57:02;;;;;;;25.40;12.05;;;;;;;2.78;100.00;102116.94;5095650;28;20055;-72
2022/12/05 07:59:27;;;;;;;22.42;12.05;;;;;;;2.80;100.00;102123.00;5095796;28;20047;-73
2022/12/05 08:01:52;;;;;;;20.35;11.18;;;;;;;2.81;100.00;102125.56;5095429;28;20028;-72
2022/12/05 08:04:18;;;;;;;20.83;11.75;;;;;;;2.82;100.00;102121.16;5095501;28;20035;-72
2022/12/05 08:06:43;;;;;;;19.80;11.75;;;;;;;2.83;100.00;102126.34;5095159;28;20122;-71
2022/12/05 08:09:09;;;;;;;20.30;11.38;;;;;;;2.84;100.00;102127.22;5095292;28;20469;-72
2022/12/05 08:11:35;;;;;;;19.92;11.90;;;;;;;2.85;100.00;102128.91;5095111;28;20115;-72
2022/12/05 08:14:01;;;;;;;19.88;10.93;;;;;;;2.87;100.00;102121.84;5095597;28;20449;-72
2022/12/05 08:16:29;;;;;;;20.05;11.20;;;;;;;2.88;100.00;102126.22;5094849;28;20066;-72
2022/12/05 08:18:56;;;;;;;15.80;10.85;;;;;;;2.89;100.00;102133.16;5095557;28;20024;-73
2022/12/05 08:21:23;;;;;;;17.30;10.88;;;;;;;2.90;100.00;102123.50;5095978;28;20035;-72
2022/12/05 08:23:49;;;;;;;13.77;9.68;;;;;;;2.91;100.00;102131.34;5095083;28;20031;-71
2022/12/05 08:26:23;;;;;;;15.95;10.50;;;;;;;2.93;100.00;102126.88;5095402;28;20429;-72
2022/12/05 08:28:53;;;;;;;16.80;10.55;;;;;;;2.95;100.00;102126.81;5095160;28;20028;-71
2022/12/05 08:31:22;;;;;;;15.82;9.70;;;;;;;2.97;100.00;102125.84;5095444;28;20032;-72
2022/12/05 08:33:48;;;;;;;16.50;10.07;;;;;;;2.98;100.00;102124.91;5095315;28;20103;-69
2022/12/05 08:36:14;;;;;;;16.33;9.73;;;;;;;3.02;100.00;102136.19;5094725;28;20059;-72
2022/12/05 08:38:40;;;;;;;17.63;9.70;;;;;;;3.02;100.00;102144.09;5094221;28;20090;-71
2022/12/05 08:41:12;;;;;;;19.00;10.70;;;;;;;3.02;100.00;102140.59;5093903;28;20375;-71
2022/12/05 08:43:38;;;;;;;15.30;9.95;;;;;;;3.05;100.00;102145.75;5094499;28;20105;-71
2022/12/05 08:46:04;;;;;;;16.48;9.45;;;;;;;3.06;100.00;102150.06;5094484;28;20056;-70
2022/12/05 08:48:31;;;;;;;14.68;8.93;;;;;;;3.06;100.00;102150.94;5076554;28;20051;-71
2022/12/05 08:50:57;;;;;;;15.07;10.02;;;;;;;3.07;100.00;102147.38;5094607;28;20036;-72
2022/12/05 08:53:23;;;;;;;18.05;9.70;;;;;;;3.07;100.00;102142.13;5094253;28;20066;-72
2022/12/05 08:55:49;;;;;;;15.88;9.00;;;;;;;3.10;100.00;102156.94;5094430;28;20032;-71
2022/12/05 08:58:14;;;;;;;14.18;8.57;;;;;;;3.10;100.00;102157.78;5094162;28;20400;-73
2022/12/05 09:00:40;;;;;;;12.30;8.60;;;;;;;3.11;100.00;102156.88;5094351;28;20081;-72
2022/12/05 09:03:08;;;;;;;14.65;8.30;;;;;;;3.13;100.00;102159.44;5094262;28;20039;-72
2022/12/05 09:05:33;;;;;;;15.00;8.43;;;;;;;3.15;100.00;102168.13;5094170;28;20049;-72
2022/12/05 09:07:58;;;;;;;14.63;8.48;;;;;;;3.17;100.00;102168.94;5059829;28;20149;-72
2022/12/05 09:10:25;;;;;;;10.65;7.70;;;;;;;3.18;100.00;102160.16;5094054;28;20119;-72
2022/12/05 09:12:50;;;;;;;12.52;8.27;;;;;;;3.19;100.00;102164.47;5094400;28;20032;-71
2022/12/05 09:15:16;;;;;;;11.52;8.00;;;;;;;3.21;100.00;102159.16;5094460;28;20375;-72
2022/12/05 09:17:42;;;;;;;11.00;8.48;;;;;;;3.21;100.00;102161.78;5093973;28;20173;-72
2022/12/05 09:20:10;;;;;;;12.27;7.85;;;;;;;3.23;100.00;102159.97;5094453;28;20111;-73
2022/12/05 09:22:36;;;;;;;12.55;8.00;;;;;;;3.25;100.00;102169.47;5094011;28;20115;-74
2022/12/05 09:25:01;;;;;;;10.40;7.40;;;;;;;3.27;100.00;102170.31;5094289;28;20068;-72
2022/12/05 09:27:27;;;;;;;10.10;7.18;;;;;;;3.29;100.00;102171.09;5075668;28;20032;-73
2022/12/05 09:29:52;;;;;;;11.25;7.03;;;;;;;3.31;100.00;102176.28;5094518;28;20115;-72
2022/12/05 09:32:18;;;;;;;11.13;7.10;;;;;;;3.32;100.00;102173.59;5093695;28;20078;-73
2022/12/05 09:34:43;;;;;;;10.20;7.00;;;;;;;3.34;100.00;102176.16;5076247;28;20462;-72
2022/12/05 09:37:09;;;;;;;10.68;6.97;;;;;;;3.34;100.00;102171.78;5093386;28;20032;-72
2022/12/05 09:39:34;;;;;;;14.98;6.90;;;;;;;3.35;100.00;102177.91;5093188;28;20472;-72
2022/12/05 09:42:18;;;;;;;9.73;6.57;;;;;;;3.38;100.00;102190.09;5093253;28;20032;-71
2022/12/05 09:45:04;;;;;;;8.50;6.22;;;;;;;3.40;100.00;102186.44;5093167;28;20089;-72
2022/12/05 09:47:53;;;;;;;9.95;6.45;;;;;;;3.42;100.00;102189.91;5093621;28;20047;-72
2022/12/05 09:50:32;;;;;;;12.63;6.57;;;;;;;3.42;100.00;102192.53;5094260;28;20035;-72
2022/12/05 09:53:06;;;;;;;10.32;6.70;;;;;;;3.43;100.00;102196.00;5093537;28;20056;-72
2022/12/05 09:55:43;;;;;;;11.38;6.95;;;;;;;3.44;100.00;102193.31;5075811;28;20107;-72
2022/12/05 09:58:18;;;;;;;7.20;6.07;;;;;;;3.44;100.00;102192.47;5093156;28;20073;-72
2022/12/05 10:00:44;;;;;;;8.63;6.80;;;;;;;3.44;100.00;102193.31;5093376;28;20027;-72
2022/12/05 10:03:25;;;;;;;11.75;6.53;;;;;;;3.48;100.00;102194.06;5093191;28;20046;-72
2022/12/05 10:06:01;;;;;;;11.75;6.68;;;;;;;3.50;100.00;102194.84;5093181;28;20033;-72
2022/12/05 10:09:02;;;;;;;9.52;6.50;;;;;;;3.50;100.00;102195.72;5093268;28;20522;-72
2022/12/05 10:11:40;;;;;;;8.95;6.80;;;;;;;3.53;100.00;102198.22;5093411;28;20032;-72
2022/12/05 10:14:15;;;;;;;11.02;6.78;;;;;;;3.56;100.00;102191.13;5094037;28;20043;-72
2022/12/05 10:17:29;;;;;;;10.88;6.82;;;;;;;3.57;100.00;102193.72;5093065;28;20028;-72
2022/12/05 10:19:59;;;;;;;9.43;6.20;;;;;;;3.59;100.00;102189.22;5079162;28;20040;-72
2022/12/05 10:22:46;;;;;;;10.13;6.78;;;;;;;3.61;100.00;102189.16;5093790;28;20020;-72
2022/12/05 10:25:16;;;;;;;13.07;7.50;;;;;;;3.67;100.00;102187.16;5093248;28;20036;-71
2022/12/05 10:27:48;;;;;;;10.73;6.82;;;;;;;3.70;100.00;102196.69;5093542;28;20059;-71
2022/12/05 10:30:20;;;;;;;12.48;7.20;;;;;;;3.73;100.00;102193.94;5093675;28;20053;-72
2022/12/05 10:32:54;;;;;;;10.02;7.05;;;;;;;3.75;100.00;102189.47;5092584;28;20035;-72
2022/12/05 10:35:45;;;;;;;13.98;7.35;;;;;;;3.79;100.00;102190.19;5093006;28;20035;-70
2022/12/05 10:38:16;;;;;;;10.63;7.63;;;;;;;3.80;100.00;102198.03;5087739;28;20089;-72
2022/12/05 10:40:47;;;;;;;11.15;7.85;;;;;;;3.82;100.00;102198.84;5092931;28;20126;-70
2022/12/05 10:43:22;;;;;;;11.80;7.47;;;;;;;3.84;100.00;102193.53;5093124;28;20028;-71
2022/12/05 10:45:48;;;;;;;11.18;6.88;;;;;;;3.84;100.00;102183.84;5093478;28;20048;-71
2022/12/05 10:48:16;;;;;;;10.30;6.82;;;;;;;3.85;100.00;102188.19;5093553;28;20131;-72
2022/12/05 10:50:44;;;;;;;10.57;7.10;;;;;;;3.86;100.00;102186.41;5092467;28;20123;-73
2022/12/05 10:53:16;;;;;;;9.00;7.00;;;;;;;3.88;100.00;102185.44;5092718;28;20059;-72
2022/12/05 10:55:49;;;;;;;12.90;7.10;;;;;;;3.88;100.00;102188.06;5092821;28;20032;-73
2022/12/05 10:58:23;;;;;;;13.60;7.53;;;;;;;3.89;100.00;102179.22;5093185;28;20040;-72
2022/12/05 11:00:52;;;;;;;9.43;7.32;;;;;;;3.91;100.00;102186.22;5093238;28;20030;-72
2022/12/05 11:03:31;;;;;;;9.57;7.18;;;;;;;3.91;100.00;102187.06;5092682;28;20107;-72
2022/12/05 11:06:00;;;;;;;10.30;7.25;;;;;;;3.92;100.00;102180.03;5096814;28;20096;-73
2022/12/05 11:08:31;;;;;;;11.35;6.80;;;;;;;3.94;100.00;102186.97;5096653;28;20032;-73
2022/12/05 11:11:17;;;;;;;10.02;7.38;;;;;;;3.93;100.00;102181.75;5096715;28;20094;-72
2022/12/05 11:13:58;;;;;;;9.68;7.05;;;;;;;3.92;100.00;102180.03;5078515;28;20039;-72
2022/12/05 11:16:29;;;;;;;9.27;6.97;;;;;;;3.94;100.00;102178.19;5096686;28;20035;-72
2022/12/05 11:18:54;;;;;;;13.43;7.38;;;;;;;3.95;100.00;102182.53;5097129;28;20031;-71
2022/12/05 11:21:19;;;;;;;12.68;7.05;;;;;;;3.96;100.00;102184.28;5095951;28;20020;-73
2022/12/05 11:23:47;;;;;;;10.38;7.30;;;;;;;3.99;100.00;102181.50;5096996;28;20464;-75
2022/12/05 11:26:40;;;;;;;10.75;7.38;;;;;;;4.02;100.00;102181.38;5096132;28;20032;-73
2022/12/05 11:29:35;;;;;;;9.88;6.68;;;;;;;4.04;100.00;102185.63;5091593;28;20048;-75
2022/12/05 11:32:04;;;;;;;9.05;6.15;;;;;;;4.05;100.00;102187.34;5096837;28;20043;-71
2022/12/05 11:34:56;;;;;;;11.23;6.53;;;;;;;4.04;100.00;102184.78;5095967;28;20050;-73